Terminal Aerodrome Forecast
Issued by NWS

Home | Current Version | Previous Version | Text Only | Print | Product List | Glossary On
Versions: 1 2 3 4 5 6 7 8 9 10 11 12 13 14
000
FTAK31 PAJN 222332
TAFAJN
TAF
PAJN 222332Z 2300/2324 24005KT P6SM VCSH FEW030 BKN060
      TEMPO 2300/2302 -SHRA
     FM230600 VRB03KT P6SM FEW005 SCT060
     FM231600 VRB05KT P6SM SCT100
     FM231800 22008KT P6SM FEW250=

USA.gov is the U.S. government's official web portal to all federal, state and local government web resources and services.